Norfolk, Virginia
Current Conditions -  °F | °C
As of 4:51 AM on Thursday 18 Dec 2014 (Local Time) from KORF Reporting Station
Clear Clear  
Wind Chill: 33°   Ceiling: Unl
Heat Index: 40°   Visibility: 10mi
Dew Point: 26°   Wind: 12mph
Humidity: 58%   Direction: 350°N
Pressure: 30.09"   Gusts: 18mph
Location:  36.85°N, 76.28°W
Report Text: KORF 180951Z AUTO 35010G16KT 10SM CLR 04/M03 A3009 RMK AO2 SLP190 T00441033 TSNO $
Loading
Personal Weather Stations






























Interactive Weather Map New forecast layout! Learn more

10-Day Weather Forecast

Advertisements
Track Severe Weather on mobile